TimeCST,TemperatureF,Dew PointF,Humidity,Sea Level PressureIn,VisibilityMPH,Wind Direction,Wind SpeedMPH,Gust SpeedMPH,PrecipitationIn,Events,Conditions,WindDirDegrees,DateUTC
12:54 AM,36.0,32.0,86,30.43,9.0,Calm,Calm,-,N/A,,Partly Cloudy,0,2011-12-13 06:54:00
1:54 AM,35.1,32.0,89,30.44,7.0,Calm,Calm,-,N/A,,Overcast,0,2011-12-13 07:54:00
2:54 AM,36.0,34.0,93,30.44,7.0,Calm,Calm,-,N/A,,Overcast,0,2011-12-13 08:54:00
3:54 AM,37.0,34.0,89,30.44,8.0,Calm,Calm,-,N/A,,Overcast,0,2011-12-13 09:54:00
4:54 AM,39.0,35.1,86,30.44,6.0,Calm,Calm,-,N/A,,Overcast,0,2011-12-13 10:54:00
5:54 AM,39.2,35.6,87,30.46,6.0,Calm,Calm,-,N/A,,Overcast,0,2011-12-13 11:54:00
6:54 AM,39.0,36.0,89,30.47,6.0,Calm,Calm,-,N/A,,Overcast,0,2011-12-13 12:54:00
7:50 AM,41.0,39.2,93,30.46,2.5,Calm,Calm,-,0.01,Rain,Light Rain,0,2011-12-13 13:50:00
7:54 AM,41.0,39.0,93,30.47,2.0,Calm,Calm,-,0.01,Rain,Light Rain,0,2011-12-13 13:54:00
8:50 AM,42.8,39.2,87,30.47,1.8,Calm,Calm,-,0.03,Rain,Light Rain,0,2011-12-13 14:50:00
8:54 AM,42.1,39.9,92,30.48,2.0,Calm,Calm,-,0.03,Rain,Light Rain,0,2011-12-13 14:54:00
9:12 AM,42.8,41.0,93,30.48,1.8,Calm,Calm,-,0.01,Rain,Light Rain,0,2011-12-13 15:12:00
9:54 AM,44.1,42.1,93,30.50,1.5,Calm,Calm,-,0.04,Rain,Light Rain,0,2011-12-13 15:54:00
10:35 AM,44.6,42.8,93,30.48,1.5,SSW,3.5,-,0.00,Rain,Light Rain,200,2011-12-13 16:35:00
10:54 AM,45.0,43.0,93,30.48,1.5,Calm,Calm,-,0.00,,Overcast,0,2011-12-13 16:54:00
11:54 AM,46.0,44.1,93,30.47,1.5,SSW,3.5,-,N/A,,Overcast,210,2011-12-13 17:54:00
12:54 PM,46.9,45.0,93,30.43,1.5,SSW,6.9,-,0.00,,Overcast,210,2011-12-13 18:54:00
1:22 PM,46.4,44.6,93,30.41,1.5,South,6.9,-,N/A,,Overcast,190,2011-12-13 19:22:00
1:54 PM,48.0,44.1,86,30.40,2.5,South,5.8,-,N/A,,Overcast,190,2011-12-13 19:54:00
2:01 PM,48.2,44.6,87,30.39,5.0,South,5.8,-,N/A,,Overcast,180,2011-12-13 20:01:00
2:27 PM,48.2,44.6,87,30.39,2.0,SSW,6.9,-,N/A,,Overcast,200,2011-12-13 20:27:00
2:37 PM,48.2,44.6,87,30.39,2.0,SSW,6.9,-,N/A,,Overcast,210,2011-12-13 20:37:00
2:54 PM,48.9,45.0,86,30.40,4.0,SSW,5.8,-,N/A,,Overcast,200,2011-12-13 20:54:00
3:03 PM,48.2,44.6,87,30.39,4.0,SSW,8.1,-,N/A,,Overcast,200,2011-12-13 21:03:00
3:54 PM,48.0,44.1,86,30.39,4.0,SSW,4.6,-,N/A,,Overcast,200,2011-12-13 21:54:00
4:54 PM,46.9,45.0,93,30.41,3.0,Calm,Calm,-,0.02,Rain,Light Rain,0,2011-12-13 22:54:00
5:36 PM,46.4,44.6,93,30.39,5.0,Calm,Calm,-,0.02,Rain,Light Rain,0,2011-12-13 23:36:00
5:54 PM,46.9,45.0,93,30.39,5.0,Calm,Calm,-,0.02,,Overcast,0,2011-12-13 23:54:00
6:54 PM,46.9,45.0,93,30.39,4.0,SSE,4.6,-,0.00,,Overcast,160,2011-12-14 00:54:00
7:54 PM,46.9,45.0,93,30.38,4.0,South,3.5,-,0.01,Rain,Light Rain,170,2011-12-14 01:54:00
8:54 PM,46.9,45.0,93,30.37,2.5,Calm,Calm,-,0.00,,Overcast,0,2011-12-14 02:54:00
9:54 PM,46.9,46.0,97,30.34,2.5,SE,3.5,-,N/A,,Overcast,130,2011-12-14 03:54:00
10:54 PM,46.4,46.4,100,30.32,2.5,ESE,3.5,-,N/A,,Overcast,120,2011-12-14 04:54:00
11:01 PM,46.4,44.6,93,30.32,2.5,SE,3.5,-,N/A,,Overcast,130,2011-12-14 05:01:00
11:16 PM,46.4,46.4,100,30.32,3.0,Calm,Calm,-,N/A,,Overcast,0,2011-12-14 05:16:00
11:44 PM,46.4,46.4,100,30.31,2.5,ESE,3.5,-,N/A,,Overcast,120,2011-12-14 05:44:00
11:54 PM,46.9,45.0,93,30.32,2.5,ESE,3.5,-,N/A,,Mostly Cloudy,120,2011-12-14 05:54:00